sensor_id;sensor_type;location;lat;lon;timestamp;temperature;humidity
18335;DHT22;9293;49.524;10.964;2023-04-12T00:00:22;6.30;99.90
18335;DHT22;9293;49.524;10.964;2023-04-12T00:02:50;6.30;99.90
18335;DHT22;9293;49.524;10.964;2023-04-12T00:05:21;6.30;99.90
18335;DHT22;9293;49.524;10.964;2023-04-12T00:07:54;6.30;99.90
18335;DHT22;9293;49.524;10.964;2023-04-12T00:10:22;6.30;99.90
18335;DHT22;9293;49.524;10.964;2023-04-12T00:12:51;6.30;99.90
18335;DHT22;9293;49.524;10.964;2023-04-12T00:15:22;6.30;99.90
18335;DHT22;9293;49.524;10.964;2023-04-12T00:17:54;6.30;99.90
18335;DHT22;9293;49.524;10.964;2023-04-12T00:20:22;6.30;99.90
18335;DHT22;9293;49.524;10.964;2023-04-12T00:22:51;6.30;99.90
18335;DHT22;9293;49.524;10.964;2023-04-12T00:25:20;6.30;99.90
18335;DHT22;9293;49.524;10.964;2023-04-12T00:27:49;6.30;99.90
18335;DHT22;9293;49.524;10.964;2023-04-12T00:30:17;6.30;99.90
18335;DHT22;9293;49.524;10.964;2023-04-12T00:32:46;6.30;99.90
18335;DHT22;9293;49.524;10.964;2023-04-12T00:35:14;6.30;99.90
18335;DHT22;9293;49.524;10.964;2023-04-12T00:37:44;6.30;99.90
18335;DHT22;9293;49.524;10.964;2023-04-12T00:40:13;6.30;99.90
18335;DHT22;9293;49.524;10.964;2023-04-12T00:42:41;6.30;99.90
18335;DHT22;9293;49.524;10.964;2023-04-12T00:45:10;6.30;99.90
18335;DHT22;9293;49.524;10.964;2023-04-12T00:47:38;6.40;99.90
18335;DHT22;9293;49.524;10.964;2023-04-12T00:50:07;6.30;99.90
18335;DHT22;9293;49.524;10.964;2023-04-12T00:52:36;6.30;99.90
18335;DHT22;9293;49.524;10.964;2023-04-12T00:55:05;6.40;99.90
18335;DHT22;9293;49.524;10.964;2023-04-12T00:57:35;6.40;99.90
18335;DHT22;9293;49.524;10.964;2023-04-12T01:00:04;6.40;99.90
18335;DHT22;9293;49.524;10.964;2023-04-12T01:02:35;6.40;99.90
18335;DHT22;9293;49.524;10.964;2023-04-12T01:05:06;6.40;99.90
18335;DHT22;9293;49.524;10.964;2023-04-12T01:07:39;6.40;99.90
18335;DHT22;9293;49.524;10.964;2023-04-12T01:15:27;6.40;99.90
18335;DHT22;9293;49.524;10.964;2023-04-12T01:18:00;6.40;99.90
18335;DHT22;9293;49.524;10.964;2023-04-12T01:20:40;6.40;99.90
18335;DHT22;9293;49.524;10.964;2023-04-12T01:28:31;6.40;99.90
18335;DHT22;9293;49.524;10.964;2023-04-12T01:31:01;6.40;99.90
18335;DHT22;9293;49.524;10.964;2023-04-12T01:33:30;6.40;99.90
18335;DHT22;9293;49.524;10.964;2023-04-12T01:36:02;6.40;99.90
18335;DHT22;9293;49.524;10.964;2023-04-12T01:38:33;6.40;99.90
18335;DHT22;9293;49.524;10.964;2023-04-12T01:41:05;6.40;99.90
18335;DHT22;9293;49.524;10.964;2023-04-12T01:43:41;6.50;99.90
18335;DHT22;9293;49.524;10.964;2023-04-12T01:46:10;6.50;99.90
18335;DHT22;9293;49.524;10.964;2023-04-12T01:48:40;6.50;99.90
18335;DHT22;9293;49.524;10.964;2023-04-12T01:51:09;6.50;99.90
18335;DHT22;9293;49.524;10.964;2023-04-12T01:53:47;6.50;99.90
18335;DHT22;9293;49.524;10.964;2023-04-12T01:56:16;6.60;99.90
18335;DHT22;9293;49.524;10.964;2023-04-12T01:58:45;6.60;99.90
18335;DHT22;9293;49.524;10.964;2023-04-12T02:01:14;6.50;99.90
18335;DHT22;9293;49.524;10.964;2023-04-12T02:03:42;6.50;99.90
18335;DHT22;9293;49.524;10.964;2023-04-12T02:06:12;6.50;99.90
18335;DHT22;9293;49.524;10.964;2023-04-12T02:08:40;6.50;99.90
18335;DHT22;9293;49.524;10.964;2023-04-12T02:11:09;6.50;99.90
18335;DHT22;9293;49.524;10.964;2023-04-12T02:13:38;6.50;99.90
18335;DHT22;9293;49.524;10.964;2023-04-12T02:16:06;6.50;99.90
18335;DHT22;9293;49.524;10.964;2023-04-12T02:18:35;6.50;99.90
18335;DHT22;9293;49.524;10.964;2023-04-12T02:21:05;6.50;99.90
18335;DHT22;9293;49.524;10.964;2023-04-12T02:23:33;6.50;99.90
18335;DHT22;9293;49.524;10.964;2023-04-12T02:26:01;6.50;99.90
18335;DHT22;9293;49.524;10.964;2023-04-12T02:28:31;6.60;99.90
18335;DHT22;9293;49.524;10.964;2023-04-12T02:31:01;6.60;99.90
18335;DHT22;9293;49.524;10.964;2023-04-12T02:33:32;6.60;99.90
18335;DHT22;9293;49.524;10.964;2023-04-12T02:36:07;6.70;99.90
18335;DHT22;9293;49.524;10.964;2023-04-12T02:38:39;6.70;99.90
18335;DHT22;9293;49.524;10.964;2023-04-12T02:41:18;6.70;99.90
18335;DHT22;9293;49.524;10.964;2023-04-12T02:43:48;6.70;99.90
18335;DHT22;9293;49.524;10.964;2023-04-12T02:46:23;6.70;99.90
18335;DHT22;9293;49.524;10.964;2023-04-12T02:48:56;6.70;99.90
18335;DHT22;9293;49.524;10.964;2023-04-12T02:51:35;6.70;99.90
18335;DHT22;9293;49.524;10.964;2023-04-12T02:54:05;6.70;99.90
18335;DHT22;9293;49.524;10.964;2023-04-12T02:56:49;6.80;99.90
18335;DHT22;9293;49.524;10.964;2023-04-12T02:59:35;6.70;99.90
18335;DHT22;9293;49.524;10.964;2023-04-12T03:02:33;6.70;99.90
18335;DHT22;9293;49.524;10.964;2023-04-12T03:05:04;6.70;99.90
18335;DHT22;9293;49.524;10.964;2023-04-12T03:07:39;6.60;99.90
18335;DHT22;9293;49.524;10.964;2023-04-12T03:10:08;6.70;99.90
18335;DHT22;9293;49.524;10.964;2023-04-12T03:12:46;6.70;99.90
18335;DHT22;9293;49.524;10.964;2023-04-12T03:15:18;6.70;99.90
18335;DHT22;9293;49.524;10.964;2023-04-12T03:17:55;6.70;99.90
18335;DHT22;9293;49.524;10.964;2023-04-12T03:20:28;6.70;99.90
18335;DHT22;9293;49.524;10.964;2023-04-12T03:23:01;6.80;99.90
18335;DHT22;9293;49.524;10.964;2023-04-12T03:25:32;6.70;99.90
18335;DHT22;9293;49.524;10.964;2023-04-12T03:28:17;6.80;99.90
18335;DHT22;9293;49.524;10.964;2023-04-12T03:30:48;6.80;99.90
18335;DHT22;9293;49.524;10.964;2023-04-12T03:33:20;6.80;99.90
18335;DHT22;9293;49.524;10.964;2023-04-12T03:35:53;6.80;99.90
18335;DHT22;9293;49.524;10.964;2023-04-12T03:38:22;6.80;99.90
18335;DHT22;9293;49.524;10.964;2023-04-12T03:40:52;6.80;99.90
18335;DHT22;9293;49.524;10.964;2023-04-12T03:43:27;6.90;99.90
18335;DHT22;9293;49.524;10.964;2023-04-12T03:45:55;6.90;99.90
18335;DHT22;9293;49.524;10.964;2023-04-12T03:48:24;6.90;99.90
18335;DHT22;9293;49.524;10.964;2023-04-12T03:50:53;7.00;99.90
18335;DHT22;9293;49.524;10.964;2023-04-12T03:53:22;7.00;99.90
18335;DHT22;9293;49.524;10.964;2023-04-12T03:55:53;6.90;99.90
18335;DHT22;9293;49.524;10.964;2023-04-12T03:58:26;6.90;99.90
18335;DHT22;9293;49.524;10.964;2023-04-12T04:00:55;6.90;99.90
18335;DHT22;9293;49.524;10.964;2023-04-12T04:03:23;6.90;99.90
18335;DHT22;9293;49.524;10.964;2023-04-12T04:06:05;6.90;99.90
18335;DHT22;9293;49.524;10.964;2023-04-12T04:08:34;6.90;99.90
18335;DHT22;9293;49.524;10.964;2023-04-12T04:11:02;6.90;99.90
18335;DHT22;9293;49.524;10.964;2023-04-12T04:13:38;6.90;99.90
18335;DHT22;9293;49.524;10.964;2023-04-12T04:16:15;6.90;99.90
18335;DHT22;9293;49.524;10.964;2023-04-12T04:18:45;6.90;99.90
18335;DHT22;9293;49.524;10.964;2023-04-12T04:21:16;6.90;99.90
18335;DHT22;9293;49.524;10.964;2023-04-12T04:23:46;6.90;99.90
18335;DHT22;9293;49.524;10.964;2023-04-12T04:26:15;7.00;99.90
18335;DHT22;9293;49.524;10.964;2023-04-12T04:28:56;7.00;99.90
18335;DHT22;9293;49.524;10.964;2023-04-12T04:31:34;7.00;99.90
18335;DHT22;9293;49.524;10.964;2023-04-12T04:34:05;7.00;99.90
18335;DHT22;9293;49.524;10.964;2023-04-12T04:36:40;7.00;99.90
18335;DHT22;9293;49.524;10.964;2023-04-12T04:39:09;7.00;99.90
18335;DHT22;9293;49.524;10.964;2023-04-12T04:41:38;7.00;99.90
18335;DHT22;9293;49.524;10.964;2023-04-12T04:44:13;7.00;99.90
18335;DHT22;9293;49.524;10.964;2023-04-12T04:46:50;7.00;99.90
18335;DHT22;9293;49.524;10.964;2023-04-12T04:49:18;7.10;99.90
18335;DHT22;9293;49.524;10.964;2023-04-12T04:51:47;7.10;99.90
18335;DHT22;9293;49.524;10.964;2023-04-12T04:54:16;7.10;99.90
18335;DHT22;9293;49.524;10.964;2023-04-12T04:56:44;7.20;99.90
18335;DHT22;9293;49.524;10.964;2023-04-12T04:59:16;7.20;99.90
18335;DHT22;9293;49.524;10.964;2023-04-12T05:01:44;7.20;99.90
18335;DHT22;9293;49.524;10.964;2023-04-12T05:04:15;7.20;99.90
18335;DHT22;9293;49.524;10.964;2023-04-12T05:06:44;7.20;99.90
18335;DHT22;9293;49.524;10.964;2023-04-12T05:09:17;7.20;99.90
18335;DHT22;9293;49.524;10.964;2023-04-12T05:11:54;7.20;99.90
18335;DHT22;9293;49.524;10.964;2023-04-12T05:14:24;7.20;99.90
18335;DHT22;9293;49.524;10.964;2023-04-12T05:17:10;7.20;99.90
18335;DHT22;9293;49.524;10.964;2023-04-12T05:19:39;7.20;99.90
18335;DHT22;9293;49.524;10.964;2023-04-12T05:22:08;7.30;99.90
18335;DHT22;9293;49.524;10.964;2023-04-12T05:24:36;7.30;99.90
18335;DHT22;9293;49.524;10.964;2023-04-12T05:27:04;7.30;99.90
18335;DHT22;9293;49.524;10.964;2023-04-12T05:29:33;7.30;99.90
18335;DHT22;9293;49.524;10.964;2023-04-12T05:32:04;7.40;99.90
18335;DHT22;9293;49.524;10.964;2023-04-12T05:34:35;7.40;99.90
18335;DHT22;9293;49.524;10.964;2023-04-12T05:37:04;7.40;99.90
18335;DHT22;9293;49.524;10.964;2023-04-12T05:39:36;7.40;99.90
18335;DHT22;9293;49.524;10.964;2023-04-12T05:42:07;7.50;99.90
18335;DHT22;9293;49.524;10.964;2023-04-12T05:44:36;7.50;99.90
18335;DHT22;9293;49.524;10.964;2023-04-12T05:47:08;7.60;99.90
18335;DHT22;9293;49.524;10.964;2023-04-12T05:49:37;7.70;99.90
18335;DHT22;9293;49.524;10.964;2023-04-12T05:52:08;7.70;99.90
18335;DHT22;9293;49.524;10.964;2023-04-12T05:54:37;7.70;99.90
18335;DHT22;9293;49.524;10.964;2023-04-12T05:57:16;7.80;99.90
18335;DHT22;9293;49.524;10.964;2023-04-12T05:59:48;7.80;99.90
18335;DHT22;9293;49.524;10.964;2023-04-12T06:02:16;7.80;99.90
18335;DHT22;9293;49.524;10.964;2023-04-12T06:04:46;7.90;99.90
18335;DHT22;9293;49.524;10.964;2023-04-12T06:07:18;7.80;99.90
18335;DHT22;9293;49.524;10.964;2023-04-12T06:09:46;7.80;99.90
18335;DHT22;9293;49.524;10.964;2023-04-12T06:12:17;7.80;99.90
18335;DHT22;9293;49.524;10.964;2023-04-12T06:14:46;7.80;99.90
18335;DHT22;9293;49.524;10.964;2023-04-12T06:17:15;7.80;99.90
18335;DHT22;9293;49.524;10.964;2023-04-12T06:19:43;7.80;99.90
18335;DHT22;9293;49.524;10.964;2023-04-12T06:22:11;7.70;99.90
18335;DHT22;9293;49.524;10.964;2023-04-12T06:24:41;7.70;99.90
18335;DHT22;9293;49.524;10.964;2023-04-12T06:27:10;7.70;99.90
18335;DHT22;9293;49.524;10.964;2023-04-12T06:29:39;7.70;99.90
18335;DHT22;9293;49.524;10.964;2023-04-12T06:32:07;7.70;99.90
18335;DHT22;9293;49.524;10.964;2023-04-12T06:34:36;7.70;99.90
18335;DHT22;9293;49.524;10.964;2023-04-12T06:37:10;7.70;99.90
18335;DHT22;9293;49.524;10.964;2023-04-12T06:39:39;7.80;99.90
18335;DHT22;9293;49.524;10.964;2023-04-12T06:42:07;7.80;99.90
18335;DHT22;9293;49.524;10.964;2023-04-12T06:44:38;7.80;99.90
18335;DHT22;9293;49.524;10.964;2023-04-12T06:47:07;7.80;99.90
18335;DHT22;9293;49.524;10.964;2023-04-12T06:49:39;7.80;99.90
18335;DHT22;9293;49.524;10.964;2023-04-12T06:52:08;7.80;99.90
18335;DHT22;9293;49.524;10.964;2023-04-12T06:54:37;7.80;99.90
18335;DHT22;9293;49.524;10.964;2023-04-12T06:57:09;7.80;99.90
18335;DHT22;9293;49.524;10.964;2023-04-12T06:59:41;7.80;99.90
18335;DHT22;9293;49.524;10.964;2023-04-12T07:02:10;7.80;99.90
18335;DHT22;9293;49.524;10.964;2023-04-12T07:04:39;7.80;99.90
18335;DHT22;9293;49.524;10.964;2023-04-12T07:07:08;7.80;99.90
18335;DHT22;9293;49.524;10.964;2023-04-12T07:09:37;7.80;99.90
18335;DHT22;9293;49.524;10.964;2023-04-12T07:12:05;7.70;99.90
18335;DHT22;9293;49.524;10.964;2023-04-12T07:14:34;7.70;99.90
18335;DHT22;9293;49.524;10.964;2023-04-12T07:17:03;7.70;99.90
18335;DHT22;9293;49.524;10.964;2023-04-12T07:19:31;7.70;99.90
18335;DHT22;9293;49.524;10.964;2023-04-12T07:21:59;7.70;99.90
18335;DHT22;9293;49.524;10.964;2023-04-12T07:24:28;7.70;99.90
18335;DHT22;9293;49.524;10.964;2023-04-12T07:26:56;7.60;99.90
18335;DHT22;9293;49.524;10.964;2023-04-12T07:29:25;7.60;99.90
18335;DHT22;9293;49.524;10.964;2023-04-12T07:31:53;7.70;99.90
18335;DHT22;9293;49.524;10.964;2023-04-12T07:34:22;7.70;99.90
18335;DHT22;9293;49.524;10.964;2023-04-12T07:36:51;7.70;99.90
18335;DHT22;9293;49.524;10.964;2023-04-12T07:39:19;7.70;99.90
18335;DHT22;9293;49.524;10.964;2023-04-12T07:41:48;7.70;99.90
18335;DHT22;9293;49.524;10.964;2023-04-12T07:44:17;7.70;99.90
18335;DHT22;9293;49.524;10.964;2023-04-12T07:46:45;7.70;99.90
18335;DHT22;9293;49.524;10.964;2023-04-12T07:49:14;7.70;99.90
18335;DHT22;9293;49.524;10.964;2023-04-12T07:51:42;7.80;99.90
18335;DHT22;9293;49.524;10.964;2023-04-12T07:54:10;7.70;99.90
18335;DHT22;9293;49.524;10.964;2023-04-12T07:56:40;7.70;99.90
18335;DHT22;9293;49.524;10.964;2023-04-12T07:59:08;7.70;99.90
18335;DHT22;9293;49.524;10.964;2023-04-12T08:01:37;7.80;99.90
18335;DHT22;9293;49.524;10.964;2023-04-12T08:04:06;7.80;99.90
18335;DHT22;9293;49.524;10.964;2023-04-12T08:06:36;7.80;99.90
18335;DHT22;9293;49.524;10.964;2023-04-12T08:09:05;7.90;99.90
18335;DHT22;9293;49.524;10.964;2023-04-12T08:11:34;8.00;99.90
18335;DHT22;9293;49.524;10.964;2023-04-12T08:14:03;8.10;99.90
18335;DHT22;9293;49.524;10.964;2023-04-12T08:16:32;8.20;99.90
18335;DHT22;9293;49.524;10.964;2023-04-12T08:19:01;8.10;99.90
18335;DHT22;9293;49.524;10.964;2023-04-12T08:21:29;8.20;99.90
18335;DHT22;9293;49.524;10.964;2023-04-12T08:23:58;8.20;99.90
18335;DHT22;9293;49.524;10.964;2023-04-12T08:26:26;8.30;99.90
18335;DHT22;9293;49.524;10.964;2023-04-12T08:28:57;8.30;99.90
18335;DHT22;9293;49.524;10.964;2023-04-12T08:31:25;8.30;99.90
18335;DHT22;9293;49.524;10.964;2023-04-12T08:34:00;8.40;99.90
18335;DHT22;9293;49.524;10.964;2023-04-12T08:36:28;8.50;99.90
18335;DHT22;9293;49.524;10.964;2023-04-12T08:39:00;8.60;99.90
18335;DHT22;9293;49.524;10.964;2023-04-12T08:41:28;8.50;99.90
18335;DHT22;9293;49.524;10.964;2023-04-12T08:43:57;8.50;99.90
18335;DHT22;9293;49.524;10.964;2023-04-12T08:46:26;8.50;99.90
18335;DHT22;9293;49.524;10.964;2023-04-12T08:48:55;8.50;99.90
18335;DHT22;9293;49.524;10.964;2023-04-12T08:51:25;8.50;99.90
18335;DHT22;9293;49.524;10.964;2023-04-12T08:53:54;8.60;99.90
18335;DHT22;9293;49.524;10.964;2023-04-12T08:56:23;8.60;99.90
18335;DHT22;9293;49.524;10.964;2023-04-12T08:58:52;8.70;99.90
18335;DHT22;9293;49.524;10.964;2023-04-12T09:01:20;8.60;99.90
18335;DHT22;9293;49.524;10.964;2023-04-12T09:03:49;8.70;99.90
18335;DHT22;9293;49.524;10.964;2023-04-12T09:06:18;8.70;99.90
18335;DHT22;9293;49.524;10.964;2023-04-12T09:08:54;8.70;99.90
18335;DHT22;9293;49.524;10.964;2023-04-12T09:11:23;8.60;99.90
18335;DHT22;9293;49.524;10.964;2023-04-12T09:13:52;8.60;99.90
18335;DHT22;9293;49.524;10.964;2023-04-12T09:16:38;8.60;99.90
18335;DHT22;9293;49.524;10.964;2023-04-12T09:19:07;8.70;99.90
18335;DHT22;9293;49.524;10.964;2023-04-12T09:21:36;8.70;99.90
18335;DHT22;9293;49.524;10.964;2023-04-12T09:24:08;8.80;99.90
18335;DHT22;9293;49.524;10.964;2023-04-12T09:26:45;8.70;99.90
18335;DHT22;9293;49.524;10.964;2023-04-12T09:29:21;8.60;99.90
18335;DHT22;9293;49.524;10.964;2023-04-12T09:32:03;8.60;99.90
18335;DHT22;9293;49.524;10.964;2023-04-12T09:34:32;8.60;99.90
18335;DHT22;9293;49.524;10.964;2023-04-12T09:37:13;8.50;99.90
18335;DHT22;9293;49.524;10.964;2023-04-12T09:39:42;8.50;99.90
18335;DHT22;9293;49.524;10.964;2023-04-12T09:42:11;8.40;99.90
18335;DHT22;9293;49.524;10.964;2023-04-12T09:44:58;8.40;99.90
18335;DHT22;9293;49.524;10.964;2023-04-12T09:47:37;8.40;99.90
18335;DHT22;9293;49.524;10.964;2023-04-12T09:50:06;8.40;99.90
18335;DHT22;9293;49.524;10.964;2023-04-12T09:52:36;8.40;99.90
18335;DHT22;9293;49.524;10.964;2023-04-12T09:55:06;8.40;99.90
18335;DHT22;9293;49.524;10.964;2023-04-12T09:57:40;8.50;99.90
18335;DHT22;9293;49.524;10.964;2023-04-12T10:00:09;8.60;99.90
18335;DHT22;9293;49.524;10.964;2023-04-12T10:02:47;8.60;99.90
18335;DHT22;9293;49.524;10.964;2023-04-12T10:05:18;8.70;99.90
18335;DHT22;9293;49.524;10.964;2023-04-12T10:07:48;8.70;99.90
18335;DHT22;9293;49.524;10.964;2023-04-12T10:10:17;8.70;99.90
18335;DHT22;9293;49.524;10.964;2023-04-12T10:12:46;8.70;99.90
18335;DHT22;9293;49.524;10.964;2023-04-12T10:15:15;8.60;99.90
18335;DHT22;9293;49.524;10.964;2023-04-12T10:17:54;8.70;99.90
18335;DHT22;9293;49.524;10.964;2023-04-12T10:20:24;8.80;99.90
18335;DHT22;9293;49.524;10.964;2023-04-12T10:22:59;8.90;99.90
18335;DHT22;9293;49.524;10.964;2023-04-12T10:25:31;8.90;99.90
18335;DHT22;9293;49.524;10.964;2023-04-12T10:28:12;8.90;99.90
18335;DHT22;9293;49.524;10.964;2023-04-12T10:30:44;9.00;99.90
18335;DHT22;9293;49.524;10.964;2023-04-12T10:33:16;9.10;99.90
18335;DHT22;9293;49.524;10.964;2023-04-12T10:38:22;9.30;99.90
18335;DHT22;9293;49.524;10.964;2023-04-12T10:43:43;9.20;99.90
18335;DHT22;9293;49.524;10.964;2023-04-12T10:49:10;9.20;99.90
18335;DHT22;9293;49.524;10.964;2023-04-12T10:52:10;9.30;99.90
18335;DHT22;9293;49.524;10.964;2023-04-12T10:56:57;9.60;99.90
18335;DHT22;9293;49.524;10.964;2023-04-12T10:59:50;9.70;99.90
18335;DHT22;9293;49.524;10.964;2023-04-12T11:02:19;9.80;99.90
18335;DHT22;9293;49.524;10.964;2023-04-12T11:07:51;9.80;99.90
18335;DHT22;9293;49.524;10.964;2023-04-12T11:10:57;9.60;99.90
18335;DHT22;9293;49.524;10.964;2023-04-12T11:13:34;9.50;99.90
18335;DHT22;9293;49.524;10.964;2023-04-12T11:16:05;9.50;99.90
18335;DHT22;9293;49.524;10.964;2023-04-12T11:18:34;9.60;99.90
18335;DHT22;9293;49.524;10.964;2023-04-12T11:21:03;9.60;99.90
18335;DHT22;9293;49.524;10.964;2023-04-12T11:23:31;9.70;99.90
18335;DHT22;9293;49.524;10.964;2023-04-12T11:26:00;9.70;99.90
18335;DHT22;9293;49.524;10.964;2023-04-12T11:28:29;9.70;99.90
18335;DHT22;9293;49.524;10.964;2023-04-12T11:31:01;9.70;99.90
18335;DHT22;9293;49.524;10.964;2023-04-12T11:33:39;9.70;99.90
18335;DHT22;9293;49.524;10.964;2023-04-12T11:36:09;9.70;99.90
18335;DHT22;9293;49.524;10.964;2023-04-12T11:38:39;9.70;99.90
18335;DHT22;9293;49.524;10.964;2023-04-12T11:41:07;9.70;99.90
18335;DHT22;9293;49.524;10.964;2023-04-12T11:43:36;9.70;99.90
18335;DHT22;9293;49.524;10.964;2023-04-12T11:46:05;9.70;99.90
18335;DHT22;9293;49.524;10.964;2023-04-12T11:48:34;9.70;99.90
18335;DHT22;9293;49.524;10.964;2023-04-12T11:51:18;9.80;99.90
18335;DHT22;9293;49.524;10.964;2023-04-12T11:53:50;9.80;99.90
18335;DHT22;9293;49.524;10.964;2023-04-12T11:56:19;9.90;99.90
18335;DHT22;9293;49.524;10.964;2023-04-12T11:58:47;9.90;99.90
18335;DHT22;9293;49.524;10.964;2023-04-12T12:01:19;9.90;99.90
18335;DHT22;9293;49.524;10.964;2023-04-12T12:03:47;9.90;99.90
18335;DHT22;9293;49.524;10.964;2023-04-12T12:06:16;10.00;99.90
18335;DHT22;9293;49.524;10.964;2023-04-12T12:08:47;10.10;99.90
18335;DHT22;9293;49.524;10.964;2023-04-12T12:11:17;10.10;99.90
18335;DHT22;9293;49.524;10.964;2023-04-12T12:13:45;10.10;99.90
18335;DHT22;9293;49.524;10.964;2023-04-12T12:16:14;10.20;99.90
18335;DHT22;9293;49.524;10.964;2023-04-12T12:18:47;10.20;99.90
18335;DHT22;9293;49.524;10.964;2023-04-12T12:21:18;10.20;99.90
18335;DHT22;9293;49.524;10.964;2023-04-12T12:23:47;10.20;99.90
18335;DHT22;9293;49.524;10.964;2023-04-12T12:26:19;10.20;99.90
18335;DHT22;9293;49.524;10.964;2023-04-12T12:28:48;10.20;99.90
18335;DHT22;9293;49.524;10.964;2023-04-12T12:31:18;10.20;99.90
18335;DHT22;9293;49.524;10.964;2023-04-12T12:33:47;10.30;99.90
18335;DHT22;9293;49.524;10.964;2023-04-12T12:36:18;10.30;99.90
18335;DHT22;9293;49.524;10.964;2023-04-12T12:38:51;10.40;99.90
18335;DHT22;9293;49.524;10.964;2023-04-12T12:41:20;10.50;99.90
18335;DHT22;9293;49.524;10.964;2023-04-12T12:43:50;10.60;99.90
18335;DHT22;9293;49.524;10.964;2023-04-12T12:46:24;10.70;99.90
18335;DHT22;9293;49.524;10.964;2023-04-12T12:49:13;10.70;99.90
18335;DHT22;9293;49.524;10.964;2023-04-12T12:51:41;10.70;99.90
18335;DHT22;9293;49.524;10.964;2023-04-12T12:54:09;10.80;99.90
18335;DHT22;9293;49.524;10.964;2023-04-12T12:56:37;10.80;99.90
18335;DHT22;9293;49.524;10.964;2023-04-12T12:59:06;10.70;99.90
18335;DHT22;9293;49.524;10.964;2023-04-12T13:01:34;10.70;99.90
18335;DHT22;9293;49.524;10.964;2023-04-12T13:04:02;10.70;99.90
18335;DHT22;9293;49.524;10.964;2023-04-12T13:06:30;10.90;99.90
18335;DHT22;9293;49.524;10.964;2023-04-12T13:08:58;11.30;99.90
18335;DHT22;9293;49.524;10.964;2023-04-12T13:11:27;11.30;99.90
18335;DHT22;9293;49.524;10.964;2023-04-12T13:13:55;11.20;99.90
18335;DHT22;9293;49.524;10.964;2023-04-12T13:16:23;11.20;99.90
18335;DHT22;9293;49.524;10.964;2023-04-12T13:18:52;11.20;99.90
18335;DHT22;9293;49.524;10.964;2023-04-12T13:21:21;11.10;99.90
18335;DHT22;9293;49.524;10.964;2023-04-12T13:23:49;11.10;99.90
18335;DHT22;9293;49.524;10.964;2023-04-12T13:26:17;11.10;99.90
18335;DHT22;9293;49.524;10.964;2023-04-12T13:28:47;11.10;99.90
18335;DHT22;9293;49.524;10.964;2023-04-12T13:31:15;11.30;99.90
18335;DHT22;9293;49.524;10.964;2023-04-12T13:33:43;11.40;99.90
18335;DHT22;9293;49.524;10.964;2023-04-12T13:36:11;11.60;99.90
18335;DHT22;9293;49.524;10.964;2023-04-12T13:38:39;11.60;99.90
18335;DHT22;9293;49.524;10.964;2023-04-12T13:41:07;11.80;99.90
18335;DHT22;9293;49.524;10.964;2023-04-12T13:43:35;12.00;99.90
18335;DHT22;9293;49.524;10.964;2023-04-12T13:46:04;12.10;99.90
18335;DHT22;9293;49.524;10.964;2023-04-12T13:48:32;12.30;99.90
18335;DHT22;9293;49.524;10.964;2023-04-12T13:51:00;12.30;99.90
18335;DHT22;9293;49.524;10.964;2023-04-12T13:53:31;12.40;99.90
18335;DHT22;9293;49.524;10.964;2023-04-12T13:56:00;12.20;99.90
18335;DHT22;9293;49.524;10.964;2023-04-12T13:58:28;12.10;99.90
18335;DHT22;9293;49.524;10.964;2023-04-12T14:01:07;12.20;99.90
18335;DHT22;9293;49.524;10.964;2023-04-12T14:03:36;12.20;99.90
18335;DHT22;9293;49.524;10.964;2023-04-12T14:06:09;12.10;99.90
18335;DHT22;9293;49.524;10.964;2023-04-12T14:08:38;12.10;99.90
18335;DHT22;9293;49.524;10.964;2023-04-12T14:11:06;12.10;99.90
18335;DHT22;9293;49.524;10.964;2023-04-12T14:13:34;12.10;99.90
18335;DHT22;9293;49.524;10.964;2023-04-12T14:16:03;12.20;99.90
18335;DHT22;9293;49.524;10.964;2023-04-12T14:18:31;12.20;99.90
18335;DHT22;9293;49.524;10.964;2023-04-12T14:20:59;12.20;99.90
18335;DHT22;9293;49.524;10.964;2023-04-12T14:23:28;12.30;99.90
18335;DHT22;9293;49.524;10.964;2023-04-12T14:25:56;12.20;99.90
18335;DHT22;9293;49.524;10.964;2023-04-12T14:28:24;12.10;99.90
18335;DHT22;9293;49.524;10.964;2023-04-12T14:30:57;12.00;99.90
18335;DHT22;9293;49.524;10.964;2023-04-12T14:33:25;12.00;99.90
18335;DHT22;9293;49.524;10.964;2023-04-12T14:35:55;11.90;99.90
18335;DHT22;9293;49.524;10.964;2023-04-12T14:38:24;11.90;99.90
18335;DHT22;9293;49.524;10.964;2023-04-12T14:40:52;11.90;99.90
18335;DHT22;9293;49.524;10.964;2023-04-12T14:43:21;12.00;99.90
18335;DHT22;9293;49.524;10.964;2023-04-12T14:45:49;12.10;99.90
18335;DHT22;9293;49.524;10.964;2023-04-12T14:48:21;12.20;99.90
18335;DHT22;9293;49.524;10.964;2023-04-12T14:50:49;12.20;99.90
18335;DHT22;9293;49.524;10.964;2023-04-12T14:53:18;12.40;99.90
18335;DHT22;9293;49.524;10.964;2023-04-12T14:55:47;12.50;99.90
18335;DHT22;9293;49.524;10.964;2023-04-12T14:58:15;12.70;99.90
18335;DHT22;9293;49.524;10.964;2023-04-12T15:00:43;13.00;99.90
18335;DHT22;9293;49.524;10.964;2023-04-12T15:03:13;13.00;99.90
18335;DHT22;9293;49.524;10.964;2023-04-12T15:05:42;13.10;99.90
18335;DHT22;9293;49.524;10.964;2023-04-12T15:08:11;13.10;99.90
18335;DHT22;9293;49.524;10.964;2023-04-12T15:10:39;13.10;99.90
18335;DHT22;9293;49.524;10.964;2023-04-12T15:13:08;13.10;99.90
18335;DHT22;9293;49.524;10.964;2023-04-12T15:15:36;13.20;99.90
18335;DHT22;9293;49.524;10.964;2023-04-12T15:18:05;13.20;99.90
18335;DHT22;9293;49.524;10.964;2023-04-12T15:20:49;13.40;99.90
18335;DHT22;9293;49.524;10.964;2023-04-12T15:23:18;13.50;99.90
18335;DHT22;9293;49.524;10.964;2023-04-12T15:26:09;13.60;99.90
18335;DHT22;9293;49.524;10.964;2023-04-12T15:28:49;13.70;99.90
18335;DHT22;9293;49.524;10.964;2023-04-12T15:31:26;13.70;99.90
18335;DHT22;9293;49.524;10.964;2023-04-12T15:34:02;13.90;99.90
18335;DHT22;9293;49.524;10.964;2023-04-12T15:36:37;13.90;99.90
18335;DHT22;9293;49.524;10.964;2023-04-12T15:39:57;13.90;99.90
18335;DHT22;9293;49.524;10.964;2023-04-12T15:43:28;13.90;99.90
18335;DHT22;9293;49.524;10.964;2023-04-12T15:46:42;13.90;99.90
18335;DHT22;9293;49.524;10.964;2023-04-12T15:49:46;13.90;99.90
18335;DHT22;9293;49.524;10.964;2023-04-12T15:53:05;14.00;99.90
18335;DHT22;9293;49.524;10.964;2023-04-12T15:55:53;14.00;99.90
18335;DHT22;9293;49.524;10.964;2023-04-12T15:58:55;13.90;99.90
18335;DHT22;9293;49.524;10.964;2023-04-12T16:01:42;13.90;99.90
18335;DHT22;9293;49.524;10.964;2023-04-12T16:04:37;13.80;99.90
18335;DHT22;9293;49.524;10.964;2023-04-12T16:07:54;13.70;99.90
18335;DHT22;9293;49.524;10.964;2023-04-12T16:10:57;13.60;99.90
18335;DHT22;9293;49.524;10.964;2023-04-12T16:13:32;13.60;99.90
18335;DHT22;9293;49.524;10.964;2023-04-12T16:16:41;13.50;99.90
18335;DHT22;9293;49.524;10.964;2023-04-12T16:19:09;13.40;99.90
18335;DHT22;9293;49.524;10.964;2023-04-12T16:21:38;13.40;99.90
18335;DHT22;9293;49.524;10.964;2023-04-12T16:24:10;13.30;99.90
18335;DHT22;9293;49.524;10.964;2023-04-12T16:26:38;13.20;99.90
18335;DHT22;9293;49.524;10.964;2023-04-12T16:29:07;13.10;99.90
18335;DHT22;9293;49.524;10.964;2023-04-12T16:31:35;13.00;99.90
18335;DHT22;9293;49.524;10.964;2023-04-12T16:34:04;12.80;99.90
18335;DHT22;9293;49.524;10.964;2023-04-12T16:36:32;12.60;99.90